DLH28Y EDDF-EDDW
Flight info
| Callsign | DLH28Y |
|---|---|
| Flight time | 0h 40m |
| Altitude | 23000 |
| Route | MARUN2D MARUN Y153 WRB N850 NIE Z88 VERED VERED3P |
| Aircraft | A319/M-SDE3FGHIRWY/LB1 |
Departure
| Time | 2026-05-07 23:09 |
|---|---|
| Airport | Frankfurt Main Airport (EDDF) |
Arrival
| Time | 2026-05-07 23:49 |
|---|---|
| Airport | Bremen Airport (EDDW) |
| Time | Latitude | Longitude | Altitude | Speed | Heading |
|---|---|---|---|---|---|
| 2026-05-07 22:39 | 50.04942 | 8.58273 | 359 ft | 0 kts | 340° |
| 2026-05-07 22:52 | 50.04941 | 8.58278 | 359 ft | 4 kts | 304° |
| 2026-05-07 22:52 | 50.04938 | 8.58286 | 359 ft | 4 kts | 297° |
| 2026-05-07 22:52 | 50.04924 | 8.58318 | 361 ft | 4 kts | 315° |
| 2026-05-07 22:52 | 50.04902 | 8.58346 | 361 ft | 4 kts | 326° |
| 2026-05-07 22:53 | 50.04883 | 8.58370 | 360 ft | 4 kts | 288° |
| 2026-05-07 22:53 | 50.04881 | 8.58381 | 360 ft | 0 kts | 250° |
| 2026-05-07 22:55 | 50.04880 | 8.58375 | 360 ft | 1 kts | 250° |
| 2026-05-07 22:55 | 50.04872 | 8.58338 | 365 ft | 7 kts | 250° |
| 2026-05-07 22:55 | 50.04850 | 8.58247 | 361 ft | 10 kts | 250° |
| 2026-05-07 22:55 | 50.04826 | 8.58151 | 363 ft | 10 kts | 247° |
| 2026-05-07 22:56 | 50.04799 | 8.58047 | 361 ft | 0 kts | 247° |
| 2026-05-07 22:56 | 50.04795 | 8.58033 | 361 ft | 3 kts | 247° |
| 2026-05-07 22:56 | 50.04780 | 8.57996 | 360 ft | 5 kts | 230° |
| 2026-05-07 22:56 | 50.04750 | 8.57960 | 362 ft | 6 kts | 203° |
| 2026-05-07 22:57 | 50.04707 | 8.57961 | 360 ft | 7 kts | 168° |
| 2026-05-07 22:57 | 50.04660 | 8.57983 | 361 ft | 7 kts | 161° |
| 2026-05-07 22:57 | 50.04615 | 8.58010 | 359 ft | 6 kts | 159° |
| 2026-05-07 22:57 | 50.04580 | 8.58028 | 363 ft | 4 kts | 168° |
| 2026-05-07 22:58 | 50.04564 | 8.58028 | 362 ft | 1 kts | 186° |
| 2026-05-07 22:58 | 50.04544 | 8.58011 | 369 ft | 6 kts | 222° |
| 2026-05-07 22:58 | 50.04518 | 8.57922 | 365 ft | 10 kts | 251° |
| 2026-05-07 22:58 | 50.04493 | 8.57810 | 366 ft | 12 kts | 251° |
| 2026-05-07 22:59 | 50.04468 | 8.57700 | 370 ft | 13 kts | 248° |
| 2026-05-07 22:59 | 50.04449 | 8.57625 | 368 ft | 3 kts | 248° |
| 2026-05-07 22:59 | 50.04439 | 8.57588 | 368 ft | 5 kts | 248° |
| 2026-05-07 22:59 | 50.04417 | 8.57503 | 361 ft | 10 kts | 248° |
| 2026-05-07 23:00 | 50.04398 | 8.57409 | 367 ft | 11 kts | 255° |
| 2026-05-07 23:00 | 50.04370 | 8.57295 | 361 ft | 11 kts | 246° |
| 2026-05-07 23:00 | 50.04341 | 8.57176 | 361 ft | 12 kts | 250° |
| 2026-05-07 23:00 | 50.04311 | 8.57044 | 366 ft | 14 kts | 250° |
| 2026-05-07 23:01 | 50.04286 | 8.56939 | 360 ft | 0 kts | 250° |
| 2026-05-07 23:01 | 50.04286 | 8.56938 | 360 ft | 0 kts | 250° |
| 2026-05-07 23:01 | 50.04279 | 8.56910 | 363 ft | 6 kts | 248° |
| 2026-05-07 23:02 | 50.04261 | 8.56840 | 363 ft | 7 kts | 249° |
| 2026-05-07 23:02 | 50.04239 | 8.56747 | 363 ft | 12 kts | 249° |
| 2026-05-07 23:02 | 50.04200 | 8.56589 | 357 ft | 18 kts | 249° |
| 2026-05-07 23:02 | 50.04154 | 8.56394 | 354 ft | 20 kts | 249° |
| 2026-05-07 23:03 | 50.04102 | 8.56182 | 355 ft | 22 kts | 250° |
| 2026-05-07 23:03 | 50.04049 | 8.55954 | 358 ft | 23 kts | 250° |
| 2026-05-07 23:03 | 50.03991 | 8.55712 | 355 ft | 25 kts | 249° |
| 2026-05-07 23:03 | 50.03929 | 8.55456 | 352 ft | 25 kts | 252° |
| 2026-05-07 23:04 | 50.03868 | 8.55193 | 351 ft | 26 kts | 249° |
| 2026-05-07 23:04 | 50.03802 | 8.54919 | 354 ft | 28 kts | 249° |
| 2026-05-07 23:04 | 50.03733 | 8.54633 | 351 ft | 29 kts | 249° |
| 2026-05-07 23:04 | 50.03660 | 8.54328 | 348 ft | 31 kts | 249° |
| 2026-05-07 23:05 | 50.03587 | 8.54022 | 346 ft | 30 kts | 250° |
| 2026-05-07 23:05 | 50.03512 | 8.53709 | 338 ft | 31 kts | 249° |
| 2026-05-07 23:05 | 50.03456 | 8.53483 | 337 ft | 12 kts | 239° |
| 2026-05-07 23:05 | 50.03385 | 8.53479 | 336 ft | 11 kts | 124° |
| 2026-05-07 23:06 | 50.03334 | 8.53578 | 336 ft | 12 kts | 129° |
| 2026-05-07 23:06 | 50.03313 | 8.53688 | 339 ft | 11 kts | 67° |
| 2026-05-07 23:06 | 50.03326 | 8.53730 | 336 ft | 0 kts | 68° |
| 2026-05-07 23:08 | 50.03327 | 8.53734 | 339 ft | 1 kts | 68° |
| 2026-05-07 23:08 | 50.03378 | 8.53941 | 336 ft | 60 kts | 70° |
| 2026-05-07 23:08 | 50.03614 | 8.54934 | 347 ft | 135 kts | 69° |
| 2026-05-07 23:09 | 50.03988 | 8.56544 | 675 ft | 165 kts | 69° |
| 2026-05-07 23:09 | 50.04370 | 8.58215 | 1559 ft | 163 kts | 71° |
| 2026-05-07 23:09 | 50.04741 | 8.59904 | 2344 ft | 171 kts | 72° |
| 2026-05-07 23:09 | 50.05154 | 8.61770 | 2822 ft | 194 kts | 70° |
| 2026-05-07 23:10 | 50.05657 | 8.63901 | 3336 ft | 219 kts | 69° |
| 2026-05-07 23:10 | 50.06180 | 8.66162 | 4287 ft | 226 kts | 69° |
| 2026-05-07 23:10 | 50.06724 | 8.68502 | 5244 ft | 233 kts | 69° |
| 2026-05-07 23:10 | 50.07397 | 8.70827 | 6174 ft | 240 kts | 51° |
| 2026-05-07 23:11 | 50.08774 | 8.72403 | 6765 ft | 261 kts | 20° |
| 2026-05-07 23:11 | 50.10517 | 8.73367 | 7480 ft | 275 kts | 19° |
| 2026-05-07 23:11 | 50.12325 | 8.74449 | 8459 ft | 281 kts | 18° |
| 2026-05-07 23:11 | 50.14266 | 8.74871 | 9430 ft | 285 kts | 356° |
| 2026-05-07 23:12 | 50.16263 | 8.74658 | 10384 ft | 292 kts | 354° |
| 2026-05-07 23:12 | 50.18372 | 8.74409 | 10824 ft | 316 kts | 354° |
| 2026-05-07 23:12 | 50.20651 | 8.74136 | 11219 ft | 339 kts | 354° |
| 2026-05-07 23:12 | 50.23040 | 8.73858 | 11932 ft | 348 kts | 354° |
| 2026-05-07 23:13 | 50.25472 | 8.73583 | 12796 ft | 353 kts | 354° |
| 2026-05-07 23:13 | 50.27936 | 8.73307 | 13651 ft | 358 kts | 354° |
| 2026-05-07 23:13 | 50.30438 | 8.73030 | 14442 ft | 362 kts | 354° |
| 2026-05-07 23:13 | 50.32961 | 8.72750 | 15219 ft | 366 kts | 354° |
| 2026-05-07 23:14 | 50.35513 | 8.72467 | 15995 ft | 369 kts | 354° |
| 2026-05-07 23:14 | 50.38091 | 8.72183 | 16746 ft | 374 kts | 354° |
| 2026-05-07 23:14 | 50.40665 | 8.71893 | 17482 ft | 378 kts | 354° |
| 2026-05-07 23:14 | 50.43300 | 8.71595 | 18226 ft | 382 kts | 354° |
| 2026-05-07 23:15 | 50.46008 | 8.71291 | 18902 ft | 386 kts | 354° |
| 2026-05-07 23:15 | 50.48667 | 8.70994 | 19541 ft | 390 kts | 354° |
| 2026-05-07 23:15 | 50.51390 | 8.70687 | 20193 ft | 394 kts | 354° |
| 2026-05-07 23:15 | 50.54141 | 8.70378 | 20853 ft | 398 kts | 354° |
| 2026-05-07 23:16 | 50.56911 | 8.70067 | 21517 ft | 401 kts | 354° |
| 2026-05-07 23:16 | 50.59712 | 8.69752 | 22140 ft | 405 kts | 354° |
| 2026-05-07 23:16 | 50.62540 | 8.69429 | 22755 ft | 409 kts | 354° |
| 2026-05-07 23:16 | 50.65394 | 8.69101 | 23077 ft | 411 kts | 354° |
| 2026-05-07 23:17 | 50.68274 | 8.68772 | 23140 ft | 421 kts | 354° |
| 2026-05-07 23:17 | 50.71215 | 8.68435 | 23138 ft | 425 kts | 354° |
| 2026-05-07 23:17 | 50.74173 | 8.68098 | 23141 ft | 426 kts | 354° |
| 2026-05-07 23:17 | 50.77135 | 8.67762 | 23141 ft | 427 kts | 354° |
| 2026-05-07 23:18 | 50.80109 | 8.67628 | 23137 ft | 428 kts | 1° |
| 2026-05-07 23:18 | 50.83066 | 8.68232 | 23142 ft | 430 kts | 11° |
| 2026-05-07 23:18 | 50.85900 | 8.69574 | 23144 ft | 432 kts | 20° |
| 2026-05-07 23:18 | 50.88699 | 8.71345 | 23143 ft | 432 kts | 20° |
| 2026-05-07 23:19 | 50.91493 | 8.73116 | 23147 ft | 432 kts | 20° |
| 2026-05-07 23:19 | 50.94282 | 8.74883 | 23145 ft | 432 kts | 20° |
| 2026-05-07 23:19 | 50.97083 | 8.76660 | 23143 ft | 432 kts | 20° |
| 2026-05-07 23:19 | 50.99872 | 8.78433 | 23141 ft | 432 kts | 20° |
| 2026-05-07 23:20 | 51.02663 | 8.80205 | 23146 ft | 432 kts | 20° |
| 2026-05-07 23:20 | 51.05454 | 8.81977 | 23145 ft | 432 kts | 20° |
| 2026-05-07 23:20 | 51.08246 | 8.83753 | 23143 ft | 432 kts | 20° |
| 2026-05-07 23:20 | 51.11032 | 8.85534 | 23141 ft | 431 kts | 20° |
| 2026-05-07 23:21 | 51.13780 | 8.87299 | 23136 ft | 431 kts | 20° |
| 2026-05-07 23:21 | 51.16560 | 8.89088 | 23133 ft | 431 kts | 20° |
| 2026-05-07 23:21 | 51.19337 | 8.90873 | 23131 ft | 431 kts | 20° |
| 2026-05-07 23:21 | 51.22118 | 8.92658 | 23129 ft | 431 kts | 20° |
| 2026-05-07 23:22 | 51.24901 | 8.94444 | 23137 ft | 431 kts | 20° |
| 2026-05-07 23:22 | 51.27681 | 8.96231 | 23134 ft | 431 kts | 20° |
| 2026-05-07 23:22 | 51.30460 | 8.98021 | 23132 ft | 431 kts | 21° |
| 2026-05-07 23:22 | 51.33234 | 8.99815 | 23133 ft | 431 kts | 21° |
| 2026-05-07 23:23 | 51.36013 | 9.01620 | 23134 ft | 431 kts | 21° |
| 2026-05-07 23:23 | 51.38787 | 9.03426 | 23126 ft | 431 kts | 21° |
| 2026-05-07 23:23 | 51.41567 | 9.05233 | 23126 ft | 431 kts | 21° |
| 2026-05-07 23:23 | 51.44341 | 9.07034 | 23127 ft | 431 kts | 21° |
| 2026-05-07 23:24 | 51.47125 | 9.08844 | 23135 ft | 431 kts | 21° |
| 2026-05-07 23:24 | 51.49929 | 9.10537 | 23136 ft | 430 kts | 15° |
| 2026-05-07 23:24 | 51.52836 | 9.11576 | 23138 ft | 428 kts | 7° |
| 2026-05-07 23:24 | 51.55757 | 9.12195 | 23139 ft | 428 kts | 6° |
| 2026-05-07 23:25 | 51.58714 | 9.12826 | 23139 ft | 428 kts | 6° |
| 2026-05-07 23:25 | 51.61664 | 9.13465 | 23138 ft | 428 kts | 6° |
| 2026-05-07 23:25 | 51.64614 | 9.14104 | 23138 ft | 428 kts | 6° |
| 2026-05-07 23:25 | 51.67568 | 9.14742 | 23136 ft | 428 kts | 6° |
| 2026-05-07 23:26 | 51.70517 | 9.15380 | 23138 ft | 428 kts | 6° |
| 2026-05-07 23:26 | 51.73469 | 9.16020 | 23134 ft | 428 kts | 6° |
| 2026-05-07 23:26 | 51.76415 | 9.16661 | 23131 ft | 428 kts | 6° |
| 2026-05-07 23:26 | 51.79365 | 9.17304 | 23129 ft | 428 kts | 6° |
| 2026-05-07 23:27 | 51.85264 | 9.18590 | 23130 ft | 428 kts | 6° |
| 2026-05-07 23:27 | 51.88177 | 9.19225 | 23130 ft | 428 kts | 6° |
| 2026-05-07 23:27 | 51.91120 | 9.19901 | 23130 ft | 428 kts | 7° |
| 2026-05-07 23:28 | 51.94067 | 9.20644 | 23133 ft | 428 kts | 8° |
| 2026-05-07 23:28 | 51.97003 | 9.21424 | 23134 ft | 428 kts | 8° |
| 2026-05-07 23:28 | 51.99947 | 9.22224 | 23135 ft | 428 kts | 8° |
| 2026-05-07 23:28 | 52.02887 | 9.23027 | 23137 ft | 429 kts | 8° |
| 2026-05-07 23:29 | 52.05823 | 9.23815 | 23137 ft | 428 kts | 7° |
| 2026-05-07 23:29 | 52.08777 | 9.24489 | 23137 ft | 428 kts | 6° |
| 2026-05-07 23:29 | 52.11734 | 9.25042 | 23138 ft | 428 kts | 5° |
| 2026-05-07 23:29 | 52.14698 | 9.25527 | 23137 ft | 428 kts | 4° |
| 2026-05-07 23:30 | 52.17663 | 9.25992 | 23139 ft | 427 kts | 4° |
| 2026-05-07 23:30 | 52.20621 | 9.26470 | 23136 ft | 427 kts | 5° |
| 2026-05-07 23:30 | 52.23582 | 9.26979 | 23133 ft | 427 kts | 5° |
| 2026-05-07 23:30 | 52.26531 | 9.27608 | 23131 ft | 428 kts | 7° |
| 2026-05-07 23:31 | 52.29470 | 9.28362 | 23134 ft | 428 kts | 8° |
| 2026-05-07 23:31 | 52.32407 | 9.29184 | 23133 ft | 428 kts | 9° |
| 2026-05-07 23:31 | 52.35340 | 9.30022 | 23132 ft | 428 kts | 9° |
| 2026-05-07 23:31 | 52.38234 | 9.30834 | 22983 ft | 427 kts | 8° |
| 2026-05-07 23:32 | 52.41158 | 9.31631 | 22604 ft | 422 kts | 8° |
| 2026-05-07 23:32 | 52.44045 | 9.32396 | 21910 ft | 417 kts | 8° |
| 2026-05-07 23:32 | 52.46897 | 9.33135 | 21293 ft | 413 kts | 8° |
| 2026-05-07 23:32 | 52.49720 | 9.33860 | 20694 ft | 408 kts | 8° |
| 2026-05-07 23:33 | 52.52515 | 9.34582 | 20108 ft | 405 kts | 8° |
| 2026-05-07 23:33 | 52.55285 | 9.35303 | 19554 ft | 402 kts | 8° |
| 2026-05-07 23:33 | 52.58038 | 9.36021 | 19006 ft | 399 kts | 8° |
| 2026-05-07 23:33 | 52.60789 | 9.36493 | 18484 ft | 395 kts | 359° |
| 2026-05-07 23:34 | 52.63511 | 9.36168 | 17910 ft | 390 kts | 349° |
| 2026-05-07 23:34 | 52.66112 | 9.35084 | 17384 ft | 384 kts | 340° |
| 2026-05-07 23:34 | 52.68604 | 9.33585 | 16863 ft | 379 kts | 339° |
| 2026-05-07 23:34 | 52.71066 | 9.32110 | 16323 ft | 374 kts | 339° |
| 2026-05-07 23:35 | 52.73504 | 9.30656 | 15789 ft | 371 kts | 339° |
| 2026-05-07 23:35 | 52.75919 | 9.29220 | 15237 ft | 367 kts | 340° |
| 2026-05-07 23:35 | 52.78312 | 9.27794 | 14685 ft | 364 kts | 340° |
| 2026-05-07 23:35 | 52.80659 | 9.26391 | 14133 ft | 362 kts | 340° |
| 2026-05-07 23:36 | 52.83018 | 9.24974 | 13515 ft | 360 kts | 340° |
| 2026-05-07 23:36 | 52.85356 | 9.23556 | 12932 ft | 356 kts | 339° |
| 2026-05-07 23:36 | 52.87558 | 9.21738 | 12340 ft | 352 kts | 327° |
| 2026-05-07 23:36 | 52.89470 | 9.19255 | 11753 ft | 348 kts | 316° |
| 2026-05-07 23:37 | 52.91038 | 9.16224 | 11158 ft | 346 kts | 305° |
| 2026-05-07 23:37 | 52.92242 | 9.12819 | 10863 ft | 335 kts | 298° |
| 2026-05-07 23:37 | 52.93345 | 9.09525 | 10750 ft | 320 kts | 299° |
| 2026-05-07 23:37 | 52.94415 | 9.06372 | 10611 ft | 307 kts | 299° |
| 2026-05-07 23:38 | 52.95446 | 9.03350 | 10443 ft | 297 kts | 300° |
| 2026-05-07 23:38 | 52.96452 | 9.00400 | 10181 ft | 292 kts | 299° |
| 2026-05-07 23:38 | 52.97445 | 8.97473 | 10019 ft | 291 kts | 299° |
| 2026-05-07 23:38 | 52.98433 | 8.94544 | 9884 ft | 290 kts | 299° |
| 2026-05-07 23:39 | 52.99417 | 8.91620 | 9678 ft | 291 kts | 299° |
| 2026-05-07 23:39 | 53.00405 | 8.88669 | 9149 ft | 293 kts | 299° |
| 2026-05-07 23:39 | 53.01375 | 8.85769 | 8659 ft | 293 kts | 299° |
| 2026-05-07 23:39 | 53.02367 | 8.82806 | 8004 ft | 294 kts | 300° |
| 2026-05-07 23:40 | 53.03346 | 8.79845 | 7443 ft | 290 kts | 297° |
| 2026-05-07 23:40 | 53.03955 | 8.76688 | 6892 ft | 286 kts | 279° |
| 2026-05-07 23:40 | 53.03993 | 8.73433 | 6325 ft | 280 kts | 262° |
| 2026-05-07 23:40 | 53.03521 | 8.70343 | 5787 ft | 272 kts | 251° |
| 2026-05-07 23:41 | 53.02943 | 8.67394 | 5212 ft | 267 kts | 251° |
| 2026-05-07 23:41 | 53.02370 | 8.64473 | 4615 ft | 264 kts | 251° |
| 2026-05-07 23:41 | 53.01810 | 8.61615 | 4095 ft | 257 kts | 251° |
| 2026-05-07 23:41 | 53.01272 | 8.58864 | 3852 ft | 240 kts | 250° |
| 2026-05-07 23:42 | 53.00774 | 8.56310 | 3807 ft | 226 kts | 250° |
| 2026-05-07 23:42 | 53.00302 | 8.53890 | 3736 ft | 215 kts | 250° |
| 2026-05-07 23:42 | 52.99850 | 8.51580 | 3653 ft | 206 kts | 250° |
| 2026-05-07 23:42 | 52.99411 | 8.49344 | 3573 ft | 202 kts | 250° |
| 2026-05-07 23:43 | 52.99018 | 8.47108 | 3522 ft | 203 kts | 260° |
| 2026-05-07 23:43 | 52.99220 | 8.44813 | 3481 ft | 204 kts | 296° |
| 2026-05-07 23:43 | 53.00129 | 8.43061 | 3423 ft | 202 kts | 329° |
| 2026-05-07 23:43 | 53.01398 | 8.42377 | 3377 ft | 192 kts | 2° |
| 2026-05-07 23:44 | 53.02668 | 8.42885 | 3333 ft | 184 kts | 33° |
| 2026-05-07 23:44 | 53.03552 | 8.44294 | 3298 ft | 178 kts | 62° |
| 2026-05-07 23:44 | 53.03900 | 8.46229 | 3260 ft | 175 kts | 89° |
| 2026-05-07 23:44 | 53.03948 | 8.48250 | 3227 ft | 175 kts | 89° |
| 2026-05-07 23:45 | 53.03999 | 8.50264 | 3184 ft | 175 kts | 89° |
| 2026-05-07 23:45 | 53.04050 | 8.52274 | 3022 ft | 174 kts | 89° |
| 2026-05-07 23:45 | 53.04100 | 8.54283 | 2811 ft | 174 kts | 89° |
| 2026-05-07 23:45 | 53.04150 | 8.56291 | 2583 ft | 174 kts | 89° |
| 2026-05-07 23:46 | 53.04200 | 8.58303 | 2346 ft | 175 kts | 89° |
| 2026-05-07 23:46 | 53.04250 | 8.60323 | 2108 ft | 175 kts | 89° |
| 2026-05-07 23:46 | 53.04299 | 8.62345 | 1906 ft | 172 kts | 88° |
| 2026-05-07 23:46 | 53.04347 | 8.64287 | 1632 ft | 163 kts | 88° |
| 2026-05-07 23:47 | 53.04390 | 8.66065 | 1413 ft | 144 kts | 88° |
| 2026-05-07 23:47 | 53.04429 | 8.67644 | 1163 ft | 132 kts | 88° |
| 2026-05-07 23:47 | 53.04453 | 8.69224 | 942 ft | 134 kts | 88° |
| 2026-05-07 23:47 | 53.04485 | 8.70759 | 755 ft | 133 kts | 89° |
| 2026-05-07 23:48 | 53.04525 | 8.72276 | 603 ft | 132 kts | 87° |
| 2026-05-07 23:48 | 53.04567 | 8.73779 | 457 ft | 132 kts | 88° |
| 2026-05-07 23:48 | 53.04607 | 8.75353 | 310 ft | 134 kts | 86° |
| 2026-05-07 23:48 | 53.04639 | 8.76860 | 139 ft | 127 kts | 88° |
| 2026-05-07 23:49 | 53.04677 | 8.78305 | 33 ft | 117 kts | 89° |
| 2026-05-07 23:49 | 53.04701 | 8.79447 | 23 ft | 67 kts | 88° |
| 2026-05-07 23:49 | 53.04712 | 8.79866 | 22 ft | 18 kts | 78° |
| 2026-05-07 23:49 | 53.04781 | 8.79978 | 24 ft | 14 kts | 8° |
| 2026-05-07 23:50 | 53.04866 | 8.79909 | 23 ft | 15 kts | 295° |
| 2026-05-07 23:50 | 53.04877 | 8.79743 | 23 ft | 15 kts | 263° |
| 2026-05-07 23:50 | 53.04871 | 8.79559 | 23 ft | 17 kts | 268° |
| 2026-05-07 23:50 | 53.04865 | 8.79346 | 23 ft | 19 kts | 266° |
| 2026-05-07 23:51 | 53.04862 | 8.79109 | 21 ft | 22 kts | 266° |
| 2026-05-07 23:51 | 53.04851 | 8.78868 | 20 ft | 21 kts | 268° |
| 2026-05-07 23:51 | 53.04869 | 8.78686 | 23 ft | 14 kts | 320° |
| 2026-05-07 23:51 | 53.04955 | 8.78649 | 22 ft | 12 kts | 355° |
| 2026-05-07 23:52 | 53.05034 | 8.78585 | 22 ft | 11 kts | 330° |
| 2026-05-07 23:52 | 53.05085 | 8.78624 | 22 ft | 6 kts | 46° |
| 2026-05-07 23:52 | 53.05095 | 8.78640 | 22 ft | 0 kts | 47° |